松山空港の過去48時間の天気

松山空港 (Matsuyama)

現在時刻: 9/19 07:57 JST (9/18 22:57 UTC) 以下の時間は現地時間です。

過去48時間のMETAR気象情報
時間 風向 風速(m/s) 視程 気温(℃) 湿度(%) 気圧(hPa) 天気現象
19 07:00 北東 2 10km以上 23 83 1013
19 06:10 北北東 5 10km以上 23 83 1012
RJOM 182200Z 05004KT 9999 FEW020 23/20 Q1013
RJOM 182110Z 02009KT 9999 FEW020 23/20 Q1012 RMK 1CU020 A2991